METAR Data
IDs: Format: Raw Decoded Include TAF

Data at: 0134 UTC 24 Sep 2018

KJYR 240110Z AUTO 16009KT 10SM CLR 20/13 A2990 RMK AO2
KJYR 240055Z AUTO 17009KT 10SM CLR 21/13 A2990 RMK AO2
KJYR 240035Z AUTO 17010KT 10SM CLR 22/13 A2990 RMK AO2
KJYR 240015Z AUTO 17010KT 10SM CLR 23/13 A2990 RMK AO2
KJYR 232355Z AUTO 17011KT 10SM CLR 24/13 A2990 RMK AO2
KJYR 232335Z AUTO 17012G16KT 10SM CLR 24/13 A2990 RMK AO2
KJYR 232315Z AUTO 17013KT 10SM CLR 25/12 A2990 RMK AO2
KJYR 232255Z AUTO 18013G20KT 10SM CLR 25/12 A2990 RMK AO2
KJYR 232235Z AUTO 17012G20KT 10SM CLR 26/12 A2990 RMK AO2
KJYR 232215Z AUTO 17014KT 10SM CLR 27/12 A2991 RMK AO2
KJYR 232155Z AUTO 18010KT 10SM CLR 27/12 A2991 RMK AO2
KJYR 232135Z AUTO 18015G20KT 10SM CLR 27/10 A2991 RMK AO2
KJYR 232115Z AUTO 17015G21KT 10SM CLR 27/10 A2992 RMK AO2
KJYR 232055Z AUTO 18016G20KT 10SM CLR 27/10 A2992 RMK AO2
KJYR 232035Z AUTO 18013G23KT 10SM CLR 27/10 A2993 RMK AO2
KJYR 232015Z AUTO 19013G18KT 10SM CLR 27/10 A2993 RMK AO2
KJYR 231955Z AUTO 18014G22KT 10SM CLR 27/09 A2994 RMK AO2
KJYR 231935Z AUTO 17015G19KT 10SM CLR 27/10 A2995 RMK AO2
KJYR 231915Z AUTO 18014G19KT 10SM CLR 27/10 A2996 RMK AO2
KJYR 231855Z AUTO 17014G18KT 10SM CLR 26/11 A2997 RMK AO2
KJYR 231835Z AUTO 17012KT 10SM CLR 25/11 A2998 RMK AO2
KJYR 231815Z AUTO 19011G18KT 10SM CLR 25/12 A3000 RMK AO2
KJYR 231755Z AUTO 17013G17KT 10SM CLR 24/12 A3001 RMK AO2
KJYR 231735Z AUTO 19012G20KT 10SM CLR 24/13 A3001 RMK AO2
KJYR 231715Z AUTO 20014KT 10SM CLR 23/13 A3002 RMK AO2
KJYR 231655Z AUTO 20013G19KT 10SM CLR 23/13 A3002 RMK AO2
KJYR 231635Z AUTO 20015KT 10SM CLR 22/13 A3002 RMK AO2
KJYR 231615Z AUTO 20014G18KT 10SM CLR 21/13 A3003 RMK AO2
KJYR 231555Z AUTO 19013KT 10SM CLR 20/13 A3003 RMK AO2
KJYR 231535Z AUTO 20011KT 10SM CLR 19/14 A3003 RMK AO2
KJYR 231515Z AUTO 20011KT 10SM CLR 18/14 A3003 RMK AO2
KJYR 231455Z AUTO 20012KT 10SM CLR 17/14 A3003 RMK AO2
KJYR 231435Z AUTO 20010KT 10SM CLR 16/13 A3003 RMK AO2
KJYR 231415Z AUTO 18009KT 10SM CLR 14/12 A3003 RMK AO2
KJYR 231355Z AUTO 18008KT 10SM CLR 13/11 A3003 RMK AO2
KJYR 231335Z AUTO 18008KT 10SM CLR 12/10 A3003 RMK AO2
KJYR 231315Z AUTO 18006KT 10SM CLR 10/09 A3004 RMK AO2
KJYR 231255Z AUTO 18005KT 10SM CLR 10/09 A3003 RMK AO2
KJYR 231235Z AUTO 18005KT 10SM CLR 10/09 A3003 RMK AO2
KJYR 231215Z AUTO 18006KT 10SM CLR 10/09 A3003 RMK AO2
KJYR 231155Z AUTO 17006KT 10SM CLR 10/09 A3003 RMK AO2
KJYR 231130Z AUTO 18006KT 10SM CLR 10/09 A3003 RMK AO2
KJYR 231115Z AUTO 18006KT 10SM CLR 10/09 A3003 RMK AO2
KJYR 231055Z AUTO 18005KT 10SM CLR 10/09 A3003 RMK AO2
KJYR 231035Z AUTO 18006KT 10SM CLR 10/09 A3003 RMK AO2
KJYR 231015Z AUTO 19005KT 10SM CLR 10/09 A3003 RMK AO2
KJYR 230955Z AUTO 19005KT 10SM CLR 10/09 A3004 RMK AO2
KJYR 230935Z AUTO 00000KT 10SM CLR 10/09 A3004 RMK AO2
KJYR 230915Z AUTO 20005KT 10SM CLR 10/09 A3004 RMK AO2
KJYR 230850Z AUTO 20006KT 10SM CLR 10/09 A3004 RMK AO2
KJYR 230835Z AUTO 19005KT 10SM CLR 11/09 A3004 RMK AO2
KJYR 230815Z AUTO 19006KT 10SM CLR 11/09 A3005 RMK AO2
KJYR 230755Z AUTO 19006KT 10SM CLR 11/09 A3005 RMK AO2
KJYR 230735Z AUTO 19006KT 10SM CLR 11/09 A3005 RMK AO2
KJYR 230715Z AUTO 19005KT 10SM CLR 12/09 A3005 RMK AO2
KJYR 230655Z AUTO 19005KT 10SM CLR 12/09 A3006 RMK AO2
KJYR 230635Z AUTO 19007KT 10SM CLR 12/09 A3006 RMK AO2
KJYR 230615Z AUTO 18007KT 10SM CLR 11/09 A3006 RMK AO2
KJYR 230555Z AUTO 18006KT 10SM CLR 12/09 A3006 RMK AO2
KJYR 230535Z AUTO 19006KT 10SM CLR 12/09 A3006 RMK AO2
KJYR 230515Z AUTO 18006KT 10SM CLR 12/09 A3006 RMK AO2
KJYR 230455Z AUTO 19007KT 10SM CLR 13/09 A3006 RMK AO2
KJYR 230435Z AUTO 18008KT 10SM CLR 13/09 A3006 RMK AO2
KJYR 230420Z AUTO 18008KT 10SM CLR 13/09 A3007 RMK AO2
KJYR 230355Z AUTO 18007KT 10SM FEW036 13/09 A3008 RMK AO2
KJYR 230335Z AUTO 18006KT 10SM FEW036 13/09 A3008 RMK AO2
KJYR 230315Z AUTO 00000KT 10SM CLR 13/09 A3008 RMK AO2
KJYR 230255Z AUTO 18006KT 10SM CLR 14/09 A3008 RMK AO2
KJYR 230235Z AUTO 17006KT 10SM CLR 15/09 A3008 RMK AO2
KJYR 230215Z AUTO 17007KT 10SM CLR 15/09 A3008 RMK AO2
KJYR 230155Z AUTO 17006KT 10SM CLR 16/09 A3007 RMK AO2
KJYR 230135Z AUTO 17008KT 10SM CLR 17/09 A3006 RMK AO2
KJYR 230115Z AUTO 17009KT 10SM CLR 17/09 A3006 RMK AO2
KJYR 230055Z AUTO 17008KT 10SM CLR 18/09 A3006 RMK AO2
KJYR 230035Z AUTO 17007KT 10SM CLR 19/08 A3006 RMK AO2
KJYR 230015Z AUTO 17007KT 10SM CLR 19/08 A3007 RMK AO2
KJYR 222355Z AUTO 17008KT 10SM CLR 20/08 A3007 RMK AO2
KJYR 222335Z AUTO 17009KT 10SM CLR 21/08 A3007 RMK AO2
KJYR 222315Z AUTO 17011KT 10SM CLR 22/08 A3007 RMK AO2
KJYR 222255Z AUTO 18010KT 10SM CLR 22/08 A3007 RMK AO2
KJYR 222235Z AUTO 19012G16KT 10SM CLR 22/07 A3008 RMK AO2
KJYR 222215Z AUTO 17013KT 10SM CLR 22/08 A3008 RMK AO2
KJYR 222155Z AUTO 17012G16KT 10SM CLR 22/07 A3009 RMK AO2
KJYR 222135Z AUTO 17011G16KT 10SM CLR 23/07 A3010 RMK AO2
KJYR 222115Z AUTO 17013KT 10SM CLR 23/08 A3010 RMK AO2
KJYR 222055Z AUTO 18012G15KT 10SM CLR 22/07 A3011 RMK AO2
KJYR 222035Z AUTO 16009KT 10SM CLR 22/07 A3012 RMK AO2
KJYR 222015Z AUTO 16010G15KT 10SM CLR 22/07 A3013 RMK AO2
KJYR 221955Z AUTO 17012G18KT 10SM CLR 22/07 A3014 RMK AO2
KJYR 221935Z AUTO 19011G18KT 160V220 10SM CLR 21/08 A3016 RMK AO2
KJYR 221915Z AUTO 17011KT 10SM CLR 20/08 A3017 RMK AO2
KJYR 221855Z AUTO 19008KT 10SM CLR 20/08 A3019 RMK AO2
KJYR 221835Z AUTO 18010G15KT 10SM CLR 19/08 A3019 RMK AO2
KJYR 221815Z AUTO 17011KT 10SM CLR 19/08 A3020 RMK AO2
KJYR 221755Z AUTO 18009KT 10SM CLR 18/08 A3022 RMK AO2
KJYR 221735Z AUTO 17008KT 10SM CLR 18/08 A3023 RMK AO2
KJYR 221715Z AUTO 18010KT 10SM CLR 17/08 A3024 RMK AO2
KJYR 221655Z AUTO 20009KT 10SM CLR 17/09 A3025 RMK AO2
KJYR 221635Z AUTO 20009KT 10SM CLR 15/09 A3026 RMK AO2
KJYR 221615Z AUTO 17011KT 10SM CLR 15/09 A3026 RMK AO2
KJYR 221555Z AUTO 17010KT 10SM CLR 14/09 A3027 RMK AO2
KJYR 221535Z AUTO 18009KT 10SM CLR 13/09 A3028 RMK AO2
KJYR 221515Z AUTO 16008KT 10SM CLR 12/08 A3028 RMK AO2
KJYR 221455Z AUTO 17010KT 10SM CLR 12/08 A3028 RMK AO2
KJYR 221435Z AUTO 17009KT 10SM CLR 10/08 A3028 RMK AO2
KJYR 221415Z AUTO 16010KT 10SM CLR 10/07 A3028 RMK AO2
KJYR 221355Z AUTO 15010KT 10SM CLR 09/07 A3028 RMK AO2
KJYR 221335Z AUTO 15008KT 10SM CLR 08/07 A3028 RMK AO2